Time;durP1;ratioP1;P1;durP2;ratioP2;P2;SDS_P1;SDS_P2;PMS_P1;PMS_P2;Temp;Humidity;BMP_temperature;BMP_pressure;BME280_temperature;BME280_humidity;BME280_pressure;Samples;Min_cycle;Max_cycle;Signal;HPM_P1;HPM_P2
2022/07/12 00:01:12;;;;;;;5.33;1.67;;;;;;;12.52;77.26;97495.14;1801906;79;28158;-77
2022/07/12 00:03:38;;;;;;;2.52;1.80;;;;;;;12.53;77.23;97489.20;1770080;81;25711;-77
2022/07/12 00:06:05;;;;;;;1.47;1.32;;;;;;;12.53;77.29;97489.20;1801937;79;25717;-77
2022/07/12 00:08:32;;;;;;;2.00;1.70;;;;;;;12.54;77.28;97491.69;1770176;81;25671;-77
2022/07/12 00:10:58;;;;;;;2.65;1.60;;;;;;;12.55;77.26;97496.06;1824245;78;25793;-76
2022/07/12 00:13:25;;;;;;;3.60;1.72;;;;;;;12.50;77.30;97487.76;1801800;79;27359;-76
2022/07/12 00:15:51;;;;;;;2.52;1.50;;;;;;;12.49;77.33;97489.33;1770104;81;25977;-78
2022/07/12 00:18:19;;;;;;;4.15;1.65;;;;;;;12.50;77.38;97488.28;1801881;79;25736;-76
2022/07/12 00:20:45;;;;;;;3.83;1.45;;;;;;;12.52;77.40;97487.02;1770113;81;25779;-76
2022/07/12 00:23:12;;;;;;;4.67;1.87;;;;;;;12.48;77.37;97490.38;1824441;78;25712;-76
2022/07/12 00:25:38;;;;;;;2.70;1.60;;;;;;;12.47;77.46;97492.25;1802169;79;28030;-76
2022/07/12 00:28:05;;;;;;;2.17;1.67;;;;;;;12.48;77.44;97491.20;1770193;79;25841;-77
2022/07/12 00:30:32;;;;;;;1.98;1.57;;;;;;;12.49;77.42;97498.80;1801901;79;25779;-77
2022/07/12 00:32:59;;;;;;;1.95;1.70;;;;;;;12.47;77.46;97494.13;1770213;80;25713;-77
2022/07/12 00:35:25;;;;;;;2.08;1.65;;;;;;;12.42;77.42;97495.34;1802010;79;25797;-76
2022/07/12 00:37:52;;;;;;;2.75;1.55;;;;;;;12.41;77.51;97497.21;1770353;81;27201;-76
2022/07/12 00:40:18;;;;;;;6.80;1.85;;;;;;;12.42;77.50;97498.88;1801922;79;25740;-76
2022/07/12 00:42:45;;;;;;;3.72;1.75;;;;;;;12.38;77.54;97500.35;1770238;79;26272;-76
2022/07/12 00:45:12;;;;;;;5.10;2.12;;;;;;;12.35;77.57;97499.43;1801966;79;25691;-77
2022/07/12 00:47:44;;;;;;;3.20;2.50;;;;;;;12.36;77.62;97501.09;1770365;80;25697;-77
2022/07/12 00:52:45;;;;;;;2.60;2.22;;;;;;;12.28;77.48;97494.61;1737620;81;26362;-78
2022/07/12 00:55:12;;;;;;;4.30;2.30;;;;;;;12.28;77.58;97488.36;1737647;81;25794;-77
2022/07/12 00:57:41;;;;;;;5.35;2.00;;;;;;;12.32;77.72;97494.45;1725027;81;26715;-77
2022/07/12 01:00:11;;;;;;;2.33;1.80;;;;;;;12.32;77.66;97495.80;1706635;84;25815;-77
2022/07/12 01:02:38;;;;;;;4.28;1.85;;;;;;;12.32;77.71;97486.33;1706674;82;28307;-77
2022/07/12 01:05:07;;;;;;;2.85;1.67;;;;;;;12.35;77.73;97495.89;1711263;82;25890;-77
2022/07/12 01:07:36;;;;;;;4.33;2.05;;;;;;;12.35;77.76;97499.95;1711579;82;25777;-77
2022/07/12 01:10:05;;;;;;;2.55;1.22;;;;;;;12.32;77.80;97506.63;1646165;87;25862;-77
2022/07/12 01:12:32;;;;;;;2.45;1.70;;;;;;;12.33;77.86;97498.81;1646267;85;25815;-76
2022/07/12 01:14:59;;;;;;;4.22;1.60;;;;;;;12.33;77.85;97504.23;1646292;85;28254;-78
2022/07/12 01:17:28;;;;;;;1.62;1.52;;;;;;;12.29;77.90;97498.97;1646272;87;26523;-76
2022/07/12 01:19:59;;;;;;;2.35;1.62;;;;;;;12.32;78.00;97499.06;1646355;86;25759;-78
2022/07/12 01:22:33;;;;;;;4.65;1.60;;;;;;;12.32;78.04;97497.71;1646483;85;27083;-78
2022/07/12 01:25:04;;;;;;;2.22;1.65;;;;;;;12.28;78.09;97497.31;1646432;87;25720;-77
2022/07/12 01:27:31;;;;;;;4.55;1.50;;;;;;;12.30;78.12;97493.86;1646368;85;27390;-77
2022/07/12 01:29:58;;;;;;;4.72;1.75;;;;;;;12.32;78.14;97491.74;1646157;87;25834;-76
2022/07/12 01:32:25;;;;;;;1.55;1.45;;;;;;;12.33;78.19;97496.63;1646253;85;25872;-78
2022/07/12 01:35:01;;;;;;;3.80;1.62;;;;;;;12.33;78.20;97496.11;1646192;86;26578;-77
2022/07/12 01:37:38;;;;;;;3.90;1.72;;;;;;;12.33;78.25;97497.46;1646329;85;25534;-76
2022/07/12 01:40:08;;;;;;;2.55;1.50;;;;;;;12.34;78.33;97497.77;1646207;85;27403;-77
2022/07/12 01:42:36;;;;;;;3.40;1.52;;;;;;;12.33;78.31;97493.41;1646234;85;26094;-77
2022/07/12 01:45:06;;;;;;;3.67;1.67;;;;;;;12.25;78.25;97485.56;1646293;87;25807;-78
2022/07/12 01:47:33;;;;;;;4.90;1.65;;;;;;;12.24;78.41;97483.91;1646315;86;25923;-76
2022/07/12 01:50:00;;;;;;;2.72;1.57;;;;;;;12.27;78.46;97480.77;1646095;85;25639;-77
2022/07/12 01:52:28;;;;;;;3.08;1.90;;;;;;;12.27;78.48;97482.12;1646165;85;27595;-78
2022/07/12 01:54:57;;;;;;;3.35;1.80;;;;;;;12.29;78.50;97479.20;1646687;84;25784;-78
2022/07/12 01:57:25;;;;;;;1.92;1.50;;;;;;;12.30;78.58;97478.15;1709669;82;25741;-78
2022/07/12 01:59:52;;;;;;;2.40;1.47;;;;;;;12.32;78.62;97480.91;1731965;82;25796;-78
2022/07/12 02:02:19;;;;;;;2.30;1.47;;;;;;;12.30;78.64;97478.98;1732031;82;25527;-77
2022/07/12 02:04:46;;;;;;;1.87;1.62;;;;;;;12.27;78.69;97474.00;1699516;84;27537;-78
2022/07/12 02:07:13;;;;;;;5.90;2.05;;;;;;;12.29;78.75;97467.84;1754264;79;25753;-78
2022/07/12 02:09:39;;;;;;;4.35;1.65;;;;;;;12.33;78.80;97477.69;1796821;79;25886;-78
2022/07/12 02:12:06;;;;;;;2.75;1.65;;;;;;;12.36;78.82;97481.31;1796741;79;25747;-77
2022/07/12 02:14:33;;;;;;;4.75;1.90;;;;;;;12.36;78.86;97475.38;1854341;77;25683;-77
2022/07/12 02:16:59;;;;;;;3.37;1.52;;;;;;;12.36;78.77;97480.79;1854807;77;27348;-78
2022/07/12 02:19:26;;;;;;;3.60;1.70;;;;;;;12.39;78.81;97483.59;1854550;77;25776;-78
2022/07/12 02:21:53;;;;;;;1.70;1.60;;;;;;;12.38;78.86;97473.28;1854653;77;26331;-77
2022/07/12 02:24:19;;;;;;;2.52;1.60;;;;;;;12.37;78.93;97471.63;1854714;77;25726;-78
2022/07/12 02:26:46;;;;;;;2.50;1.87;;;;;;;12.39;78.94;97472.76;1854778;77;25814;-77
2022/07/12 02:29:12;;;;;;;4.65;1.67;;;;;;;12.42;78.98;97478.56;1854907;77;27387;-77
2022/07/12 02:31:39;;;;;;;1.77;1.60;;;;;;;12.39;79.02;97479.00;1854696;77;25454;-77
2022/07/12 02:34:06;;;;;;;2.95;1.92;;;;;;;12.34;79.07;97478.82;1854614;77;25723;-78
2022/07/12 02:36:33;;;;;;;2.10;1.90;;;;;;;12.32;79.14;97483.63;1854695;77;25900;-78
2022/07/12 02:39:03;;;;;;;6.70;1.82;;;;;;;12.30;79.21;97477.63;1854575;77;25719;-78
2022/07/12 02:41:30;;;;;;;1.90;1.70;;;;;;;12.33;79.31;97474.45;1854109;77;27399;-78
2022/07/12 02:43:57;;;;;;;5.00;1.90;;;;;;;12.38;79.31;97474.63;1854185;77;25645;-78
2022/07/12 02:46:24;;;;;;;2.72;1.75;;;;;;;12.38;79.33;97481.92;1854518;77;26417;-78
2022/07/12 02:48:50;;;;;;;6.42;2.45;;;;;;;12.39;79.38;97474.11;1854225;77;25791;-78
2022/07/12 02:51:17;;;;;;;2.12;1.90;;;;;;;12.40;79.43;97477.95;1854835;77;25662;-77
2022/07/12 02:53:44;;;;;;;2.85;1.77;;;;;;;12.41;79.45;97476.91;1854455;77;27312;-78
2022/07/12 02:56:11;;;;;;;2.27;2.10;;;;;;;12.43;79.51;97477.52;1854445;77;25690;-78
2022/07/12 02:58:38;;;;;;;3.65;2.50;;;;;;;12.39;79.54;97473.59;1845524;77;25719;-78
2022/07/12 03:01:05;;;;;;;2.95;2.45;;;;;;;12.38;79.64;97477.34;1838861;78;25712;-78
2022/07/12 03:03:31;;;;;;;3.58;2.10;;;;;;;12.42;79.71;97481.80;1838889;78;25626;-78
2022/07/12 03:05:58;;;;;;;2.90;2.20;;;;;;;12.43;79.72;97475.34;1838720;78;28059;-78
2022/07/12 03:08:24;;;;;;;6.40;2.30;;;;;;;12.43;79.72;97476.16;1838694;78;25644;-78
2022/07/12 03:10:51;;;;;;;2.77;2.20;;;;;;;12.45;79.76;97476.75;1838756;78;25737;-78
2022/07/12 03:13:18;;;;;;;3.02;2.17;;;;;;;12.48;79.82;97468.19;1838756;78;25724;-78
2022/07/12 03:18:14;;;;;;;6.95;2.40;;;;;;;12.49;79.86;97477.97;1763817;81;27429;-78
2022/07/12 03:20:41;;;;;;;3.72;2.77;;;;;;;12.48;79.90;97468.72;1763972;81;25770;-77
2022/07/12 03:23:07;;;;;;;4.92;2.50;;;;;;;12.50;79.97;97473.39;1763983;81;25812;-79
2022/07/12 03:25:35;;;;;;;5.78;2.62;;;;;;;12.48;80.02;97473.61;1764230;81;25863;-78
2022/07/12 03:28:02;;;;;;;4.65;3.00;;;;;;;12.50;80.07;97473.39;1763859;81;43361;-76
2022/07/12 03:30:29;;;;;;;5.22;2.80;;;;;;;12.50;80.16;97476.92;1763912;81;27361;-78
2022/07/12 03:32:55;;;;;;;3.10;2.80;;;;;;;12.52;80.14;97485.66;1763984;81;25855;-78
2022/07/12 03:35:22;;;;;;;3.90;2.80;;;;;;;12.52;80.19;97482.95;1764054;81;25745;-77
2022/07/12 03:37:51;;;;;;;4.53;3.00;;;;;;;12.53;80.27;97494.09;1763946;81;26693;-78
2022/07/12 03:40:20;;;;;;;3.75;2.90;;;;;;;12.54;80.26;97493.05;1763950;81;25311;-78
2022/07/12 03:42:47;;;;;;;3.30;3.00;;;;;;;12.51;80.34;97493.48;1764045;81;27374;-77
2022/07/12 03:45:15;;;;;;;3.02;2.72;;;;;;;12.52;80.38;97491.08;1763997;81;25299;-77
2022/07/12 03:47:42;;;;;;;4.47;3.15;;;;;;;12.52;80.46;97493.78;1763914;81;26156;-77
2022/07/12 03:50:13;;;;;;;4.83;3.00;;;;;;;12.51;80.47;97489.94;1763763;81;26715;-77
2022/07/12 03:52:42;;;;;;;3.72;3.00;;;;;;;12.53;80.56;97491.38;1759022;81;25770;-77
2022/07/12 03:55:10;;;;;;;4.55;3.22;;;;;;;12.54;80.56;97487.63;1759299;81;28183;-78
2022/07/12 03:57:37;;;;;;;4.90;3.25;;;;;;;12.52;80.56;97484.30;1759090;81;25685;-77
2022/07/12 04:00:11;;;;;;;4.53;3.40;;;;;;;12.54;80.66;97482.21;1756707;81;25931;-78
2022/07/12 04:02:37;;;;;;;4.58;3.55;;;;;;;12.57;80.54;97479.56;1753590;81;26503;-78
2022/07/12 04:05:06;;;;;;;3.40;3.17;;;;;;;12.58;80.53;97483.41;1757056;81;26075;-78
2022/07/12 04:07:32;;;;;;;6.50;3.80;;;;;;;12.62;80.47;97481.92;1757436;81;27457;-77
2022/07/12 04:09:59;;;;;;;3.70;3.35;;;;;;;12.68;80.46;97475.33;1756998;80;25885;-78
2022/07/12 04:12:25;;;;;;;4.17;3.60;;;;;;;12.69;80.30;97475.08;1756769;81;25744;-77
2022/07/12 04:14:52;;;;;;;3.90;3.50;;;;;;;12.71;80.33;97476.20;1751059;81;25890;-77
2022/07/12 04:17:19;;;;;;;4.05;3.10;;;;;;;12.71;80.36;97481.62;1742475;82;25773;-77
2022/07/12 04:19:45;;;;;;;2.95;2.75;;;;;;;12.72;80.49;97477.34;1742248;82;28751;-77
2022/07/12 04:22:12;;;;;;;6.58;3.33;;;;;;;12.70;80.41;97485.38;1742301;82;25802;-77
2022/07/12 04:24:38;;;;;;;3.87;3.30;;;;;;;12.72;80.44;97480.58;1742416;82;25704;-78
2022/07/12 04:27:05;;;;;;;7.00;3.10;;;;;;;12.74;80.49;97483.89;1742441;82;25796;-78
2022/07/12 04:29:32;;;;;;;3.42;3.05;;;;;;;12.74;80.53;97479.83;1742340;82;25509;-78
2022/07/12 04:31:58;;;;;;;3.27;2.80;;;;;;;12.75;80.70;97477.43;1742507;82;27462;-78
2022/07/12 04:34:25;;;;;;;5.85;2.50;;;;;;;12.72;80.68;97483.28;1742419;82;25729;-77
2022/07/12 04:36:51;;;;;;;4.40;2.33;;;;;;;12.75;80.75;97491.80;1742430;82;25685;-78
2022/07/12 04:39:18;;;;;;;2.47;2.27;;;;;;;12.79;80.53;97487.61;1742371;82;25822;-77
2022/07/12 04:41:44;;;;;;;2.83;2.40;;;;;;;12.83;80.41;97482.55;1742363;82;25729;-78
2022/07/12 04:44:11;;;;;;;4.83;2.47;;;;;;;12.84;80.40;97480.14;1742469;82;27339;-78
2022/07/12 04:46:38;;;;;;;4.25;2.60;;;;;;;12.85;80.46;97475.86;1741893;82;25302;-78
2022/07/12 04:49:06;;;;;;;2.80;2.60;;;;;;;12.88;80.59;97483.55;1773278;78;25768;-78
2022/07/12 04:51:32;;;;;;;5.80;2.30;;;;;;;12.87;80.70;97487.83;1833453;78;25673;-78
2022/07/12 04:53:59;;;;;;;2.87;2.62;;;;;;;12.91;80.77;97486.34;1833429;78;25752;-78
2022/07/12 04:56:26;;;;;;;4.65;2.55;;;;;;;12.93;80.71;97490.98;1833481;78;27449;-78
2022/07/12 04:58:52;;;;;;;3.40;2.30;;;;;;;12.96;80.61;97487.83;1828838;77;25863;-78
2022/07/12 05:01:19;;;;;;;3.30;2.47;;;;;;;13.02;80.77;97490.19;1801817;79;25663;-77
2022/07/12 05:03:45;;;;;;;5.83;2.90;;;;;;;13.04;80.67;97492.95;1770267;80;26468;-77
2022/07/12 05:06:12;;;;;;;2.87;2.50;;;;;;;13.07;80.69;97495.22;1802065;79;26730;-78
2022/07/12 05:08:38;;;;;;;2.77;2.58;;;;;;;13.11;80.68;97496.44;1770198;80;27358;-79
2022/07/12 05:11:05;;;;;;;4.78;2.52;;;;;;;13.12;80.77;97494.03;1824298;78;25727;-79
2022/07/12 05:13:32;;;;;;;4.22;3.08;;;;;;;13.18;80.75;97490.44;1801890;79;25754;-78
2022/07/12 05:15:59;;;;;;;2.45;2.02;;;;;;;13.25;80.67;97480.89;1770312;80;26518;-77
2022/07/12 05:18:25;;;;;;;3.42;2.50;;;;;;;13.31;80.60;97479.44;1802092;79;25661;-78
2022/07/12 05:20:52;;;;;;;3.87;3.00;;;;;;;13.31;80.42;97474.55;1770398;80;28231;-78
2022/07/12 05:23:19;;;;;;;4.00;2.90;;;;;;;13.28;80.37;97475.82;1801736;79;25721;-75
2022/07/12 05:25:46;;;;;;;4.80;3.25;;;;;;;13.28;80.47;97477.17;1770333;80;25711;-75
2022/07/12 05:28:15;;;;;;;4.33;3.00;;;;;;;13.32;80.52;97473.49;1801823;79;25872;-75
2022/07/12 05:30:45;;;;;;;2.70;2.50;;;;;;;13.41;80.55;97482.14;1766416;81;25757;-75
2022/07/12 05:33:12;;;;;;;3.00;2.80;;;;;;;13.50;80.29;97483.51;1796316;79;26809;-75
2022/07/12 05:35:38;;;;;;;3.02;2.83;;;;;;;13.59;80.23;97482.96;1764769;81;25626;-75
2022/07/12 05:38:05;;;;;;;3.25;2.55;;;;;;;13.70;80.29;97494.39;1796264;79;25231;-75
2022/07/12 05:40:32;;;;;;;4.42;2.17;;;;;;;13.77;80.37;97488.86;1764945;81;25768;-75
2022/07/12 05:42:59;;;;;;;2.25;2.05;;;;;;;13.85;80.21;97489.92;1796302;79;25688;-76
2022/07/12 05:45:26;;;;;;;2.40;1.80;;;;;;;13.90;79.74;97490.04;1764718;81;28045;-76
2022/07/12 05:47:52;;;;;;;2.47;2.27;;;;;;;13.92;79.38;97488.45;1796191;79;26353;-76
2022/07/12 05:50:19;;;;;;;3.12;2.08;;;;;;;13.94;79.28;97492.60;1764786;80;25760;-76
2022/07/12 05:55:30;;;;;;;2.87;2.30;;;;;;;13.98;79.02;97495.16;1764542;80;25800;-75
2022/07/12 05:57:57;;;;;;;2.30;2.10;;;;;;;14.01;79.23;97489.25;1796227;79;27504;-76
2022/07/12 06:00:23;;;;;;;3.12;2.20;;;;;;;14.03;79.23;97493.92;1764437;80;25709;-76
2022/07/12 06:02:50;;;;;;;3.15;2.12;;;;;;;14.06;79.03;97486.69;1796371;79;25633;-76
2022/07/12 06:05:17;;;;;;;2.95;2.08;;;;;;;14.13;78.98;97488.48;1764891;81;25707;-76
2022/07/12 06:07:43;;;;;;;3.15;1.92;;;;;;;14.19;79.14;97491.62;1796426;79;25706;-76
2022/07/12 06:10:10;;;;;;;2.15;1.95;;;;;;;14.28;78.87;97487.50;1764886;80;27418;-75
2022/07/12 06:12:37;;;;;;;3.25;2.33;;;;;;;14.35;78.74;97485.53;1796204;79;25701;-76
2022/07/12 06:15:06;;;;;;;3.40;1.52;;;;;;;14.36;79.08;97481.23;1764870;80;25743;-76
2022/07/12 06:17:34;;;;;;;1.05;0.98;;;;;;;14.40;78.53;97478.87;1796332;79;25746;-76
2022/07/12 06:20:02;;;;;;;2.27;1.57;;;;;;;14.40;78.24;97485.67;1764872;80;25221;-76
2022/07/12 06:22:29;;;;;;;1.95;1.57;;;;;;;14.43;78.39;97483.84;1826733;78;27395;-75
2022/07/12 06:24:55;;;;;;;1.60;1.50;;;;;;;14.38;77.75;97484.51;1827051;78;25637;-76
2022/07/12 06:27:22;;;;;;;2.20;1.15;;;;;;;14.39;77.71;97482.62;1827169;78;25155;-76
2022/07/12 06:29:48;;;;;;;2.10;1.40;;;;;;;14.44;77.87;97482.80;1827325;78;26262;-76
2022/07/12 06:32:16;;;;;;;2.15;1.47;;;;;;;14.53;77.70;97477.84;1827146;78;26353;-76
2022/07/12 06:34:43;;;;;;;2.55;1.45;;;;;;;14.54;77.44;97484.39;1827143;78;27343;-76
2022/07/12 06:37:09;;;;;;;2.00;1.65;;;;;;;14.58;77.17;97486.95;1827004;78;25654;-76
2022/07/12 06:39:36;;;;;;;2.65;1.47;;;;;;;14.61;77.02;97486.45;1826967;78;25712;-76
2022/07/12 06:42:05;;;;;;;1.32;1.25;;;;;;;14.66;76.95;97481.16;1826977;78;26324;-76
2022/07/12 06:44:33;;;;;;;2.17;1.52;;;;;;;14.74;76.94;97478.61;1828450;77;26382;-76
2022/07/12 06:47:00;;;;;;;1.77;1.60;;;;;;;14.80;76.61;97478.22;1841881;77;27528;-79
2022/07/12 06:49:26;;;;;;;4.10;2.10;;;;;;;14.85;76.47;97478.34;1841813;77;25653;-76
2022/07/12 06:51:53;;;;;;;2.00;1.80;;;;;;;14.86;76.28;97479.97;1841947;77;25602;-76
2022/07/12 06:54:19;;;;;;;2.20;1.50;;;;;;;14.86;76.08;97477.25;1841811;77;25724;-75
2022/07/12 06:56:46;;;;;;;3.87;2.00;;;;;;;14.85;75.85;97478.34;1842054;77;25607;-75
2022/07/12 06:59:13;;;;;;;2.98;1.95;;;;;;;14.85;75.86;97476.98;1841791;77;27507;-75
2022/07/12 07:01:40;;;;;;;2.92;1.60;;;;;;;14.86;75.86;97478.61;1841659;77;25775;-76
2022/07/12 07:04:06;;;;;;;1.92;1.82;;;;;;;14.89;75.74;97474.07;1842060;77;25638;-77
2022/07/12 07:06:33;;;;;;;3.45;1.95;;;;;;;14.94;75.47;97482.35;1841885;77;26440;-76
2022/07/12 07:08:59;;;;;;;2.12;1.82;;;;;;;15.01;75.28;97480.33;1842116;77;25769;-76
2022/07/12 07:11:26;;;;;;;3.52;1.85;;;;;;;15.12;75.18;97487.64;1841595;77;27401;-75
2022/07/12 07:13:53;;;;;;;2.35;1.72;;;;;;;15.13;74.86;97490.12;1841849;77;25650;-76
2022/07/12 07:16:22;;;;;;;3.72;1.57;;;;;;;15.21;74.95;97488.95;1841939;77;25724;-75
2022/07/12 07:18:48;;;;;;;2.33;2.02;;;;;;;15.29;74.51;97487.75;1841991;77;25613;-75
2022/07/12 07:21:15;;;;;;;1.90;1.60;;;;;;;15.33;74.31;97488.41;1842007;77;25710;-74
2022/07/12 07:23:41;;;;;;;4.30;1.50;;;;;;;15.36;74.11;97481.09;1841909;77;27339;-76
2022/07/12 07:26:08;;;;;;;1.60;1.50;;;;;;;15.30;74.04;97483.43;1841839;77;25895;-75
2022/07/12 07:30:51;;;;;;;2.98;1.50;;;;;;;15.34;74.10;97483.23;1841912;77;25736;-75
2022/07/12 07:31:03;;;;;;;1.62;1.35;;;;;;;15.37;73.87;97482.75;1837232;77;25786;-76
2022/07/12 07:33:29;;;;;;;2.35;1.20;;;;;;;15.39;73.83;97484.70;1841979;77;25680;-76
2022/07/12 07:35:56;;;;;;;1.67;1.27;;;;;;;15.38;73.58;97483.58;1842000;77;27510;-76
2022/07/12 07:38:22;;;;;;;2.27;1.22;;;;;;;15.42;73.57;97482.05;1841771;77;25692;-75
2022/07/12 07:40:49;;;;;;;1.30;1.20;;;;;;;15.42;73.32;97480.16;1842015;77;25748;-75
2022/07/12 07:43:16;;;;;;;2.02;1.00;;;;;;;15.41;73.04;97485.83;1841842;77;25763;-76
2022/07/12 07:45:42;;;;;;;1.82;1.40;;;;;;;15.40;72.97;97497.24;1841977;77;25482;-74
2022/07/12 07:48:09;;;;;;;2.12;1.30;;;;;;;15.43;72.92;97494.58;1842061;77;28053;-75
2022/07/12 07:50:35;;;;;;;2.12;1.32;;;;;;;15.49;72.95;97495.80;1842026;77;25615;-75
2022/07/12 07:53:02;;;;;;;3.50;1.67;;;;;;;15.56;72.78;97500.33;1842112;77;25688;-74
2022/07/12 07:55:28;;;;;;;3.85;1.65;;;;;;;15.63;72.75;97500.47;1842022;77;25711;-75
2022/07/12 07:57:55;;;;;;;1.80;0.98;;;;;;;15.70;72.73;97496.23;1841972;77;25383;-76
2022/07/12 08:00:22;;;;;;;2.22;1.00;;;;;;;15.76;72.53;97502.91;1844026;77;27343;-75
2022/07/12 08:02:48;;;;;;;0.82;0.80;;;;;;;15.83;72.27;97490.52;1845105;77;25381;-74
2022/07/12 08:05:15;;;;;;;2.33;0.80;;;;;;;15.89;71.98;97495.00;1845572;77;26341;-75
2022/07/12 08:07:42;;;;;;;1.62;0.70;;;;;;;15.97;71.75;97492.41;1845149;77;26575;-75
2022/07/12 08:10:09;;;;;;;1.90;0.80;;;;;;;16.00;71.49;97491.93;1845422;77;25622;-75
2022/07/12 08:12:35;;;;;;;1.17;0.98;;;;;;;16.01;71.20;97498.50;1845246;77;27411;-76
2022/07/12 08:15:02;;;;;;;2.17;1.20;;;;;;;16.03;71.09;97499.09;1845264;77;25629;-76
2022/07/12 08:17:28;;;;;;;1.72;1.35;;;;;;;16.06;70.88;97501.30;1845450;77;25685;-75
2022/07/12 08:19:55;;;;;;;2.12;1.40;;;;;;;16.10;70.76;97496.20;1845436;77;25716;-75
2022/07/12 08:22:22;;;;;;;0.82;0.80;;;;;;;16.12;70.84;97500.34;1845600;77;25617;-75
2022/07/12 08:24:49;;;;;;;1.65;1.25;;;;;;;16.14;70.46;97498.73;1845461;77;27454;-75
2022/07/12 08:27:16;;;;;;;1.65;1.27;;;;;;;16.19;70.29;97500.17;1845401;77;25418;-74
2022/07/12 08:29:43;;;;;;;2.20;1.30;;;;;;;16.25;70.31;97501.11;1845473;77;25728;-75
2022/07/12 08:32:10;;;;;;;1.15;0.95;;;;;;;16.34;70.18;97509.16;1845470;77;25697;-75
2022/07/12 08:34:36;;;;;;;1.40;0.90;;;;;;;16.35;70.04;97508.09;1845535;77;25712;-76
2022/07/12 08:37:03;;;;;;;1.30;0.93;;;;;;;16.36;69.88;97515.19;1845458;77;27508;-76
2022/07/12 08:39:30;;;;;;;1.82;1.17;;;;;;;16.34;69.67;97518.16;1845507;77;25747;-75
2022/07/12 08:41:56;;;;;;;1.00;0.93;;;;;;;16.32;69.74;97507.21;1845491;77;25748;-75
2022/07/12 08:44:23;;;;;;;1.10;0.85;;;;;;;16.41;70.07;97512.57;1845588;77;25673;-76
2022/07/12 08:46:51;;;;;;;1.45;0.90;;;;;;;16.51;69.79;97510.84;1845598;77;25724;-76
2022/07/12 08:49:18;;;;;;;3.27;1.00;;;;;;;16.63;69.65;97518.16;1845643;77;28125;-75
2022/07/12 08:51:45;;;;;;;2.60;1.00;;;;;;;16.78;69.34;97506.97;1845492;77;25752;-74
2022/07/12 08:54:13;;;;;;;1.70;0.90;;;;;;;16.90;69.30;97506.31;1845594;77;25709;-75
2022/07/12 08:56:43;;;;;;;1.80;0.75;;;;;;;17.15;69.05;97496.86;1845611;77;26582;-77
2022/07/12 08:59:13;;;;;;;3.65;0.70;;;;;;;17.48;68.34;97495.97;1845595;77;25684;-77
2022/07/12 09:01:45;;;;;;;1.62;0.90;;;;;;;17.84;67.92;97489.08;1845104;77;28171;-77
2022/07/12 09:04:13;;;;;;;;;;;;;;;18.17;67.36;97496.25;1711033;83;25262;-75
2022/07/12 09:06:39;;;;;;;0.60;0.60;;;;;;;18.25;66.50;97491.14;1708538;83;25284;-75
2022/07/12 09:09:08;;;;;;;2.50;0.62;;;;;;;18.25;66.20;97489.78;1708402;83;25743;-75
2022/07/12 09:11:44;;;;;;;0.75;0.60;;;;;;;18.48;66.08;97485.06;1709050;83;25723;-76
2022/07/12 09:14:16;;;;;;;1.75;0.80;;;;;;;18.65;65.78;97488.54;1701971;83;28110;-76
2022/07/12 09:16:43;;;;;;;1.80;0.90;;;;;;;18.77;65.49;97476.88;1702958;83;33187;-77
2022/07/12 09:19:19;;;;;;;1.95;0.80;;;;;;;18.97;65.57;97478.92;1708736;83;25967;-77
2022/07/12 09:21:55;;;;;;;1.47;0.70;;;;;;;19.41;65.35;97474.02;1708772;83;25750;-76
2022/07/12 09:24:26;;;;;;;1.07;0.68;;;;;;;19.96;64.92;97478.08;1708879;83;25833;-76
2022/07/12 09:26:58;;;;;;;2.17;1.02;;;;;;;20.08;63.72;97463.59;1708862;83;27376;-77
2022/07/12 09:29:25;;;;;;;3.72;2.02;;;;;;;19.85;63.17;97469.56;1705903;83;25781;-76
2022/07/12 09:37:26;;;;;;;5.65;1.85;;;;;;;19.34;63.29;97466.56;1708533;83;25754;-76
2022/07/12 09:39:54;;;;;;;6.50;3.60;;;;;;;19.40;62.60;97460.05;1692362;84;27534;-76
2022/07/12 09:42:24;;;;;;;3.15;2.50;;;;;;;19.60;63.08;97457.42;1707092;83;25908;-76
2022/07/12 09:44:53;;;;;;;17.55;10.40;;;;;;;19.75;62.43;97454.75;1711548;82;25377;-76
2022/07/12 09:47:20;;;;;;;13.38;9.63;;;;;;;19.69;62.41;97461.83;1699374;83;25806;-77
2022/07/12 09:49:47;;;;;;;3.98;1.32;;;;;;;19.63;62.60;97463.73;1669464;84;25815;-76
2022/07/12 09:52:23;;;;;;;1.95;0.90;;;;;;;19.42;62.19;97475.66;1699091;84;27359;-76
2022/07/12 09:54:52;;;;;;;1.30;0.90;;;;;;;19.19;61.94;97471.98;1583993;89;25762;-76
2022/07/12 09:57:29;;;;;;;1.77;1.00;;;;;;;18.97;62.36;97472.09;1585742;90;25984;-77
2022/07/12 09:59:58;;;;;;;1.00;0.93;;;;;;;18.75;62.48;97470.02;1598244;87;25693;-76
2022/07/12 10:02:26;;;;;;;2.47;1.10;;;;;;;18.34;62.68;97475.12;1649093;87;25721;-76
2022/07/12 10:04:53;;;;;;;1.90;1.27;;;;;;;18.14;63.32;97481.20;1648983;87;27399;-76
2022/07/12 10:07:20;;;;;;;2.12;1.40;;;;;;;18.08;63.78;97496.44;1626736;87;25586;-79
2022/07/12 10:09:51;;;;;;;4.92;1.67;;;;;;;17.95;64.33;97505.86;1649058;87;25736;-77
2022/07/12 10:12:21;;;;;;;4.05;1.27;;;;;;;17.66;64.89;97524.87;1596132;89;26334;-78
2022/07/12 10:14:55;;;;;;;3.27;1.20;;;;;;;17.37;65.59;97538.67;1595962;89;25904;-77
2022/07/12 10:17:23;;;;;;;2.62;1.10;;;;;;;17.18;66.30;97560.47;1552571;92;27418;-77
2022/07/12 10:19:50;;;;;;;5.92;1.12;;;;;;;16.87;66.52;97561.36;1552474;91;25817;-77
2022/07/12 10:22:21;;;;;;;2.45;0.80;;;;;;;16.48;66.61;97560.38;1549341;92;25686;-78
2022/07/12 10:24:52;;;;;;;2.20;1.10;;;;;;;16.16;67.07;97562.78;1552872;92;25825;-76
2022/07/12 10:27:24;;;;;;;2.45;0.90;;;;;;;15.93;67.43;97556.06;1552665;92;25887;-76
2022/07/12 10:29:52;;;;;;;1.00;0.90;;;;;;;15.86;68.19;97551.27;1552867;92;33722;-75
2022/07/12 10:32:34;;;;;;;3.83;1.12;;;;;;;15.98;68.57;97547.98;1552354;92;25818;-76
2022/07/12 10:35:07;;;;;;;1.30;1.20;;;;;;;16.14;68.54;97549.94;1552458;91;25780;-77
2022/07/12 10:37:35;;;;;;;1.17;1.07;;;;;;;16.40;68.99;97551.78;1543981;92;25847;-76
2022/07/12 10:40:20;;;;;;;3.30;1.55;;;;;;;16.52;69.32;97549.82;1542225;93;25881;-75
2022/07/12 10:43:10;;;;;;;2.55;1.60;;;;;;;16.66;69.49;97550.37;1542088;93;27429;-76
2022/07/12 10:45:41;;;;;;;1.70;1.47;;;;;;;16.80;69.02;97547.58;1569081;91;25541;-76
2022/07/12 10:48:19;;;;;;;3.20;1.60;;;;;;;16.95;68.89;97538.30;1556504;92;25775;-75
2022/07/12 10:50:56;;;;;;;2.87;1.45;;;;;;;17.24;69.47;97532.20;1574599;89;25742;-75
2022/07/12 10:53:30;;;;;;;3.00;1.32;;;;;;;17.60;69.79;97531.62;1610436;89;25887;-76
2022/07/12 10:56:16;;;;;;;1.22;1.10;;;;;;;17.90;69.00;97524.91;1607393;89;27506;-77
2022/07/12 10:58:49;;;;;;;3.10;1.45;;;;;;;18.19;68.81;97520.05;1610251;89;25907;-77
2022/07/12 11:01:25;;;;;;;1.27;0.90;;;;;;;18.56;68.87;97510.04;1593854;88;26642;-75
2022/07/12 11:04:08;;;;;;;3.62;1.20;;;;;;;18.91;67.73;97505.44;1610092;87;25844;-75
2022/07/12 11:06:40;;;;;;;3.05;1.10;;;;;;;19.15;66.88;97496.84;1584589;90;25741;-75
2022/07/12 11:09:11;;;;;;;3.20;1.17;;;;;;;19.32;66.46;97490.67;1628663;87;28211;-76
2022/07/12 11:11:48;;;;;;;3.45;1.10;;;;;;;19.47;66.42;97490.72;1567459;91;25772;-76
2022/07/12 11:14:32;;;;;;;3.42;1.20;;;;;;;19.61;65.60;97494.66;1581432;90;25793;-75
2022/07/12 11:16:59;;;;;;;1.30;0.90;;;;;;;19.58;65.06;97491.63;1593528;90;25851;-76
2022/07/12 11:19:29;;;;;;;1.22;1.00;;;;;;;19.60;65.14;97496.30;1566939;91;26050;-76
2022/07/12 11:21:58;;;;;;;1.80;0.65;;;;;;;19.61;64.34;97489.19;1593325;90;26836;-75
2022/07/12 11:24:31;;;;;;;1.90;0.80;;;;;;;19.49;63.41;97484.47;1593452;90;25758;-76
2022/07/12 11:29:27;;;;;;;2.17;1.07;;;;;;;19.39;63.60;97487.95;1517038;94;26512;-78
2022/07/12 11:32:04;;;;;;;1.95;0.93;;;;;;;19.33;63.41;97486.81;1517200;94;25902;-75
2022/07/12 11:34:30;;;;;;;3.65;1.00;;;;;;;19.22;63.46;97483.73;1516952;93;27528;-75
2022/07/12 11:39:37;;;;;;;0.90;0.90;;;;;;;18.96;63.17;97483.57;1454436;98;25849;-76
2022/07/12 11:42:06;;;;;;;0.98;0.85;;;;;;;18.85;63.40;97484.59;1443427;99;25831;-76
2022/07/12 11:44:51;;;;;;;1.35;0.85;;;;;;;18.79;63.05;97489.75;1454080;98;26123;-77
2022/07/12 11:47:22;;;;;;;4.20;0.80;;;;;;;18.65;62.71;97480.34;1443228;99;28188;-75
2022/07/12 11:49:54;;;;;;;2.65;0.88;;;;;;;18.51;62.44;97483.19;1453982;98;25893;-76
2022/07/12 11:52:24;;;;;;;;;;;;;;;18.45;62.62;97480.14;1445551;97;25930;-76
2022/07/12 11:54:52;;;;;;;1.50;0.70;;;;;;;18.49;62.56;97481.25;1454032;98;25869;-76
2022/07/12 11:57:21;;;;;;;1.95;0.88;;;;;;;18.55;62.75;97485.16;1443494;98;25858;-78